• Join FlightAware (Why Join?)
  • Login
  • US Flag 
06:37AM EDT


 

Airport Tracker/Info


-or-


 

Live Flight TrackerFlight Track Log ✈ AWE1524 ✈ 21-Jul-2013 ✈ KATL - KCLT

Flight Track Log - Related Links

Times and Time Zones

All times are in EDT time to prevent confusion due to time zone crossing. See the AWE1524 flight status page for this flight to view local times or setup timezone preferences in your user account.

Time Position Orientation Groundspeed Altitude Reporting Facility
EDT Latitude Longitude Course Direction KTS MPH feet Rate Location/Type
02:16PM 33.6333 -84.4667 101° East 163 188 2,500  Level Atlanta TRACON
02:17PM 33.6167 -84.5333 253° West 220 253 4,400 2,100 Climbing Atlanta TRACON
02:18PM 33.7855 -84.1141 73° East  Level Estimated
02:18PM 33.5667 -84.5833 220° Southwest 277 319 6,700  Level Atlanta TRACON
02:19PM 33.8349 -84.0092 101° East  Level Estimated
02:19PM 33.4653 -84.5767 177° South 283 326 10,300  Level Atlanta Center
02:20PM 33.7757 -83.9120 126° Southeast  Level FlightAware Approximate
02:20PM 33.3906 -84.5289 152° Southeast 315 362 11,600  Level Atlanta Center
02:21PM 33.8278 -83.8090 101° East  Level Estimated
02:21PM 33.4117 -84.4047 78° East 286 329 13,700  Level Atlanta Center
02:22PM 33.4558 -84.2828 67° East 337 388 15,800 2,040 Climbing Atlanta Center
02:23PM 33.5042 -84.1583 65° Northeast 373 429 17,800 1,740 Climbing Atlanta Center
02:24PM 33.5542 -84.0289 65° Northeast 416 479 19,300 1,500 Climbing Atlanta Center
02:25PM 33.6042 -83.8942 66° East 437 503 20,800 1,680 Climbing Atlanta Center
02:26PM 33.6561 -83.7569 66° East 442 509 22,700 1,920 Climbing Atlanta Center
02:27PM 33.7081 -83.6217 65° Northeast 442 509 24,700 1,140 Climbing Atlanta Center
02:28PM 33.7514 -83.5017 66° East 437 503 25,000 120 Climbing Atlanta Center
02:29PM 33.8028 -83.3689 65° Northeast 437 503 25,000  Level Atlanta Center
02:30PM 33.8522 -83.2333 66° East 437 503 25,000  Level Atlanta Center
02:31PM 33.9033 -83.0978 66° East 442 509 25,000 -240 Level Atlanta Center
02:32PM 33.9522 -82.9619 67° East 437 503 24,600 -540 Descending Atlanta Center
02:33PM 34.0033 -82.8286 65° Northeast 437 503 24,000 -300 Descending Atlanta Center
02:34PM 34.0519 -82.6925 67° East 437 503 24,000  Level Atlanta Center
02:35PM 34.1067 -82.5436 66° East 437 503 24,000  Level Atlanta Center
02:36PM 34.1572 -82.4222 63° Northeast 442 509 24,000  Level Atlanta Center
02:37PM 34.2053 -82.2856 67° East 442 509 24,000 480 Level Atlanta Center
02:38PM 34.2578 -82.1514 65° Northeast 442 509 25,000 -1,620 Climbing Atlanta Center
02:39PM 34.3394 -82.0414 48° Northeast 437 503 20,800 -2,520 Descending Atlanta Center
02:40PM 34.4150 -81.9464 46° Northeast 415 478 20,000 -1,500 Descending Atlanta Center
02:41PM 34.4825 -81.8639 45° Northeast 373 429 17,800 -2,100 Descending Atlanta Center
02:42PM 34.5478 -81.7817 46° Northeast 348 400 15,900 -2,040 Descending Atlanta Center
02:43PM 34.6089 -81.7044 46° Northeast 329 379 14,000 -1,680 Descending Atlanta Center
02:44PM 34.6781 -81.6139 47° Northeast 322 371 12,600 -900 Descending Atlanta Center
02:45PM 34.7392 -81.5364 46° Northeast 316 364 12,100 -360 Descending Atlanta Center
02:46PM 34.7942 -81.4689 45° Northeast 357 411 12,000 -480 Descending Atlanta Center
02:47PM 34.8714 -81.3678 47° Northeast 364 419 11,200 -900 Descending Atlanta Center
02:48PM 34.9361 -81.2822 47° Northeast 359 413 10,200 -600 Descending Atlanta Center
02:49PM 34.9992 -81.2014 46° Northeast 330 380 10,100 -120 Descending Atlanta Center
02:50PM 35.0558 -81.1286 46° Northeast 292 336 10,000 -300 Descending Atlanta Center
02:51PM 35.1294 -81.0650 35° Northeast 290 334 9,500 -900 Descending Atlanta Center
02:52PM 35.2108 -81.0722 356° North 274 315 8,200 -1,560 Descending Atlanta Center
02:53PM 35.2925 -81.0794 356° North 281 323 6,400 -1,740 Descending Atlanta Center
02:54PM 35.3697 -81.0869 355° North 270 311 4,700 -1,260 Descending Atlanta Center
02:55PM 35.4233 -81.0594 23° Northeast 224 258 3,900 -600 Descending Atlanta Center
02:56PM 35.3867 -81.0072 131° Southeast 178 205 3,500 -420 Descending Atlanta Center